メインページ
METAR-TAF:

METAR-TAF

空港 :

Alma, ミシガン州, アメリカ合衆国

緯度: 43-19-19N, 経度: 084-41-16W, 海抜: 229m

現時点の気象観測

当レポートは26分前の15:16(UTC)に作成
南西の風 7kt
気温 25°C
湿度 79%
気圧 1014 hPa
視程: 16.1km
高度1100ftの千切れ雲あり

METAR: KAMN 211516Z AUTO 23007KT 10SM BKN011 25/21 A2993 RMK AO2

時間: 11:42 (15:42 UTC)


TAF: 見つかりません

4,000以上の空港の気象観測と天気予報(METAR報とTAF報)

利用可能な観測所は地図上に黄色い丸と赤い丸で示す。

丸の上にカーソルを重ねると観測所名を参照できる。

次にクリックすると気象観測と天気予報を参照できる。

マップの切り替え:黒色「×」印の緑ボタンをクリックして拡大、「-」印の緑ボタンをクリックして縮小、緑色の三角印をクリックして隣りの地図に切り替え


METAR-TAF: